sensor_id;sensor_type;location;lat;lon;timestamp;pressure;altitude;pressure_sealevel;temperature;humidity
63281;BME280;49406;51.044;3.766;2023-02-04T00:01:34;103450.44;;;10.34;100.00
63281;BME280;49406;51.044;3.766;2023-02-04T00:04:09;103448.86;;;10.34;100.00
63281;BME280;49406;51.044;3.766;2023-02-04T00:06:45;103447.42;;;10.33;100.00
63281;BME280;49406;51.044;3.766;2023-02-04T00:09:20;103454.46;;;10.34;100.00
63281;BME280;49406;51.044;3.766;2023-02-04T00:11:54;103452.34;;;10.34;100.00
63281;BME280;49406;51.044;3.766;2023-02-04T00:14:29;103449.69;;;10.33;100.00
63281;BME280;49406;51.044;3.766;2023-02-04T00:17:04;103451.52;;;10.35;100.00
63281;BME280;49406;51.044;3.766;2023-02-04T00:19:40;103451.85;;;10.34;100.00
63281;BME280;49406;51.044;3.766;2023-02-04T00:22:15;103450.08;;;10.34;100.00
63281;BME280;49406;51.044;3.766;2023-02-04T00:24:50;103452.79;;;10.36;100.00
63281;BME280;49406;51.044;3.766;2023-02-04T00:27:25;103456.67;;;10.36;100.00
63281;BME280;49406;51.044;3.766;2023-02-04T00:29:59;103454.44;;;10.37;100.00
63281;BME280;49406;51.044;3.766;2023-02-04T00:32:34;103457.45;;;10.38;100.00
63281;BME280;49406;51.044;3.766;2023-02-04T00:35:09;103456.86;;;10.40;100.00
63281;BME280;49406;51.044;3.766;2023-02-04T00:37:44;103458.56;;;10.42;100.00
63281;BME280;49406;51.044;3.766;2023-02-04T00:40:19;103455.77;;;10.42;100.00
63281;BME280;49406;51.044;3.766;2023-02-04T00:42:53;103458.23;;;10.42;100.00
63281;BME280;49406;51.044;3.766;2023-02-04T00:45:28;103457.34;;;10.42;100.00
63281;BME280;49406;51.044;3.766;2023-02-04T00:48:03;103462.13;;;10.43;100.00
63281;BME280;49406;51.044;3.766;2023-02-04T00:50:37;103460.69;;;10.42;100.00
63281;BME280;49406;51.044;3.766;2023-02-04T00:53:12;103462.18;;;10.41;100.00
63281;BME280;49406;51.044;3.766;2023-02-04T00:55:47;103457.19;;;10.39;100.00
63281;BME280;49406;51.044;3.766;2023-02-04T00:58:22;103465.17;;;10.38;100.00
63281;BME280;49406;51.044;3.766;2023-02-04T01:00:57;103467.71;;;10.37;100.00
63281;BME280;49406;51.044;3.766;2023-02-04T01:03:31;103466.02;;;10.34;100.00
63281;BME280;49406;51.044;3.766;2023-02-04T01:06:06;103467.81;;;10.32;100.00
63281;BME280;49406;51.044;3.766;2023-02-04T01:08:41;103467.23;;;10.27;100.00
63281;BME280;49406;51.044;3.766;2023-02-04T01:11:15;103467.92;;;10.21;100.00
63281;BME280;49406;51.044;3.766;2023-02-04T01:13:50;103467.44;;;10.15;100.00
63281;BME280;49406;51.044;3.766;2023-02-04T01:16:25;103467.98;;;10.09;100.00
63281;BME280;49406;51.044;3.766;2023-02-04T01:19:00;103469.96;;;10.04;100.00
63281;BME280;49406;51.044;3.766;2023-02-04T01:21:35;103471.98;;;9.98;100.00
63281;BME280;49406;51.044;3.766;2023-02-04T01:24:10;103470.17;;;9.93;100.00
63281;BME280;49406;51.044;3.766;2023-02-04T01:26:43;103473.73;;;9.88;100.00
63281;BME280;49406;51.044;3.766;2023-02-04T01:29:17;103474.48;;;9.82;100.00
63281;BME280;49406;51.044;3.766;2023-02-04T01:31:52;103478.30;;;9.79;100.00
63281;BME280;49406;51.044;3.766;2023-02-04T01:34:26;103479.99;;;9.74;100.00
63281;BME280;49406;51.044;3.766;2023-02-04T01:37:03;103480.14;;;9.71;100.00
63281;BME280;49406;51.044;3.766;2023-02-04T01:39:39;103475.98;;;9.69;100.00
63281;BME280;49406;51.044;3.766;2023-02-04T01:42:13;103477.09;;;9.66;100.00
63281;BME280;49406;51.044;3.766;2023-02-04T01:44:48;103482.79;;;9.65;100.00
63281;BME280;49406;51.044;3.766;2023-02-04T01:47:23;103485.49;;;9.63;100.00
63281;BME280;49406;51.044;3.766;2023-02-04T01:49:58;103489.23;;;9.61;100.00
63281;BME280;49406;51.044;3.766;2023-02-04T01:52:36;103490.39;;;9.59;100.00
63281;BME280;49406;51.044;3.766;2023-02-04T01:55:15;103491.27;;;9.57;100.00
63281;BME280;49406;51.044;3.766;2023-02-04T01:57:51;103492.70;;;9.57;100.00
63281;BME280;49406;51.044;3.766;2023-02-04T02:00:28;103492.83;;;9.57;100.00
63281;BME280;49406;51.044;3.766;2023-02-04T02:03:03;103494.34;;;9.56;100.00
63281;BME280;49406;51.044;3.766;2023-02-04T02:05:43;103494.80;;;9.55;100.00
63281;BME280;49406;51.044;3.766;2023-02-04T02:08:19;103495.27;;;9.54;100.00
63281;BME280;49406;51.044;3.766;2023-02-04T02:10:53;103493.61;;;9.52;100.00
63281;BME280;49406;51.044;3.766;2023-02-04T02:13:28;103493.75;;;9.52;100.00
63281;BME280;49406;51.044;3.766;2023-02-04T02:16:03;103496.10;;;9.50;100.00
63281;BME280;49406;51.044;3.766;2023-02-04T02:18:38;103497.08;;;9.48;100.00
63281;BME280;49406;51.044;3.766;2023-02-04T02:21:15;103498.54;;;9.46;100.00
63281;BME280;49406;51.044;3.766;2023-02-04T02:23:54;103498.27;;;9.44;100.00
63281;BME280;49406;51.044;3.766;2023-02-04T02:26:30;103500.95;;;9.43;100.00
63281;BME280;49406;51.044;3.766;2023-02-04T02:29:05;103497.46;;;9.37;100.00
63281;BME280;49406;51.044;3.766;2023-02-04T02:31:39;103506.58;;;9.38;100.00
63281;BME280;49406;51.044;3.766;2023-02-04T02:34:12;103504.48;;;9.34;100.00
63281;BME280;49406;51.044;3.766;2023-02-04T02:36:47;103507.20;;;9.32;100.00
63281;BME280;49406;51.044;3.766;2023-02-04T02:39:22;103514.04;;;9.30;100.00
63281;BME280;49406;51.044;3.766;2023-02-04T02:41:57;103509.95;;;9.28;100.00
63281;BME280;49406;51.044;3.766;2023-02-04T02:44:32;103505.04;;;9.25;100.00
63281;BME280;49406;51.044;3.766;2023-02-04T02:47:12;103511.05;;;9.26;100.00
63281;BME280;49406;51.044;3.766;2023-02-04T02:49:50;103514.94;;;9.24;100.00
63281;BME280;49406;51.044;3.766;2023-02-04T02:52:26;103518.17;;;9.23;100.00
63281;BME280;49406;51.044;3.766;2023-02-04T02:55:00;103514.89;;;9.20;100.00
63281;BME280;49406;51.044;3.766;2023-02-04T02:57:35;103517.08;;;9.19;100.00
63281;BME280;49406;51.044;3.766;2023-02-04T03:00:17;103519.02;;;9.16;100.00
63281;BME280;49406;51.044;3.766;2023-02-04T03:02:58;103522.02;;;9.17;100.00
63281;BME280;49406;51.044;3.766;2023-02-04T03:05:38;103521.02;;;9.14;100.00
63281;BME280;49406;51.044;3.766;2023-02-04T03:08:15;103530.08;;;9.14;100.00
63281;BME280;49406;51.044;3.766;2023-02-04T03:10:50;103535.95;;;9.13;100.00
63281;BME280;49406;51.044;3.766;2023-02-04T03:13:26;103536.10;;;9.13;100.00
63281;BME280;49406;51.044;3.766;2023-02-04T03:16:01;103538.39;;;9.13;100.00
63281;BME280;49406;51.044;3.766;2023-02-04T03:18:37;103537.46;;;9.12;100.00
63281;BME280;49406;51.044;3.766;2023-02-04T03:21:12;103543.20;;;9.12;100.00
63281;BME280;49406;51.044;3.766;2023-02-04T03:23:47;103545.84;;;9.12;100.00
63281;BME280;49406;51.044;3.766;2023-02-04T03:26:22;103542.79;;;9.10;100.00
63281;BME280;49406;51.044;3.766;2023-02-04T03:28:57;103550.35;;;9.11;100.00
63281;BME280;49406;51.044;3.766;2023-02-04T03:31:32;103546.29;;;9.11;100.00
63281;BME280;49406;51.044;3.766;2023-02-04T03:34:06;103547.13;;;9.10;100.00
63281;BME280;49406;51.044;3.766;2023-02-04T03:36:41;103546.60;;;9.10;100.00
63281;BME280;49406;51.044;3.766;2023-02-04T03:39:16;103549.43;;;9.11;100.00
63281;BME280;49406;51.044;3.766;2023-02-04T03:41:51;103546.75;;;9.09;100.00
63281;BME280;49406;51.044;3.766;2023-02-04T03:44:25;103548.29;;;9.09;100.00
63281;BME280;49406;51.044;3.766;2023-02-04T03:47:00;103546.87;;;9.08;100.00
63281;BME280;49406;51.044;3.766;2023-02-04T03:49:34;103545.09;;;9.08;100.00
63281;BME280;49406;51.044;3.766;2023-02-04T03:52:09;103546.08;;;9.07;100.00
63281;BME280;49406;51.044;3.766;2023-02-04T03:54:44;103549.23;;;9.07;100.00
63281;BME280;49406;51.044;3.766;2023-02-04T03:57:17;103549.49;;;9.06;100.00
63281;BME280;49406;51.044;3.766;2023-02-04T03:59:51;103554.10;;;9.07;100.00
63281;BME280;49406;51.044;3.766;2023-02-04T04:02:26;103554.52;;;9.05;100.00
63281;BME280;49406;51.044;3.766;2023-02-04T04:05:01;103554.70;;;9.05;100.00
63281;BME280;49406;51.044;3.766;2023-02-04T04:07:35;103547.18;;;9.02;100.00
63281;BME280;49406;51.044;3.766;2023-02-04T04:10:11;103553.30;;;9.05;100.00
63281;BME280;49406;51.044;3.766;2023-02-04T04:12:45;103559.03;;;9.05;100.00
63281;BME280;49406;51.044;3.766;2023-02-04T04:15:20;103560.92;;;9.04;100.00
63281;BME280;49406;51.044;3.766;2023-02-04T04:17:55;103561.79;;;9.04;100.00
63281;BME280;49406;51.044;3.766;2023-02-04T04:20:30;103565.45;;;9.04;100.00
63281;BME280;49406;51.044;3.766;2023-02-04T04:23:04;103565.81;;;9.04;100.00
63281;BME280;49406;51.044;3.766;2023-02-04T04:25:39;103568.76;;;9.04;100.00
63281;BME280;49406;51.044;3.766;2023-02-04T04:28:13;103571.98;;;9.03;100.00
63281;BME280;49406;51.044;3.766;2023-02-04T04:30:48;103577.44;;;9.03;100.00
63281;BME280;49406;51.044;3.766;2023-02-04T04:33:23;103573.21;;;9.02;100.00
63281;BME280;49406;51.044;3.766;2023-02-04T04:35:57;103577.63;;;9.03;100.00
63281;BME280;49406;51.044;3.766;2023-02-04T04:38:32;103579.89;;;9.03;100.00
63281;BME280;49406;51.044;3.766;2023-02-04T04:41:07;103580.39;;;9.03;100.00
63281;BME280;49406;51.044;3.766;2023-02-04T04:43:41;103578.52;;;9.04;100.00
63281;BME280;49406;51.044;3.766;2023-02-04T04:46:16;103577.63;;;9.03;100.00
63281;BME280;49406;51.044;3.766;2023-02-04T04:48:51;103576.05;;;9.03;100.00
63281;BME280;49406;51.044;3.766;2023-02-04T04:51:25;103580.27;;;9.04;100.00
63281;BME280;49406;51.044;3.766;2023-02-04T04:54:04;103580.09;;;9.04;100.00
63281;BME280;49406;51.044;3.766;2023-02-04T04:56:39;103578.01;;;9.01;100.00
63281;BME280;49406;51.044;3.766;2023-02-04T04:59:13;103584.94;;;9.03;100.00
63281;BME280;49406;51.044;3.766;2023-02-04T05:01:48;103586.84;;;9.03;100.00
63281;BME280;49406;51.044;3.766;2023-02-04T05:04:23;103585.79;;;9.03;100.00
63281;BME280;49406;51.044;3.766;2023-02-04T05:06:57;103584.66;;;9.01;100.00
63281;BME280;49406;51.044;3.766;2023-02-04T05:09:32;103582.91;;;9.01;100.00
63281;BME280;49406;51.044;3.766;2023-02-04T05:12:07;103585.30;;;9.00;100.00
63281;BME280;49406;51.044;3.766;2023-02-04T05:14:42;103581.38;;;8.99;100.00
63281;BME280;49406;51.044;3.766;2023-02-04T05:17:16;103582.64;;;9.00;100.00
63281;BME280;49406;51.044;3.766;2023-02-04T05:19:51;103584.04;;;9.00;100.00
63281;BME280;49406;51.044;3.766;2023-02-04T05:22:26;103585.23;;;8.99;100.00
63281;BME280;49406;51.044;3.766;2023-02-04T05:25:00;103581.36;;;8.98;100.00
63281;BME280;49406;51.044;3.766;2023-02-04T05:27:35;103580.63;;;8.98;100.00
63281;BME280;49406;51.044;3.766;2023-02-04T05:30:12;103578.55;;;8.98;100.00
63281;BME280;49406;51.044;3.766;2023-02-04T05:32:47;103576.05;;;8.97;100.00
63281;BME280;49406;51.044;3.766;2023-02-04T05:35:21;103579.22;;;8.98;100.00
63281;BME280;49406;51.044;3.766;2023-02-04T05:37:56;103581.11;;;8.97;100.00
63281;BME280;49406;51.044;3.766;2023-02-04T05:40:31;103582.32;;;8.97;100.00
63281;BME280;49406;51.044;3.766;2023-02-04T05:43:05;103583.28;;;8.96;100.00
63281;BME280;49406;51.044;3.766;2023-02-04T05:45:40;103586.09;;;8.96;100.00
63281;BME280;49406;51.044;3.766;2023-02-04T05:48:15;103587.11;;;8.95;100.00
63281;BME280;49406;51.044;3.766;2023-02-04T05:50:49;103591.15;;;8.96;100.00
63281;BME280;49406;51.044;3.766;2023-02-04T05:53:24;103594.65;;;8.96;100.00
63281;BME280;49406;51.044;3.766;2023-02-04T05:55:58;103595.72;;;8.96;100.00
63281;BME280;49406;51.044;3.766;2023-02-04T05:58:33;103596.01;;;8.95;100.00
63281;BME280;49406;51.044;3.766;2023-02-04T06:01:08;103597.92;;;8.95;100.00
63281;BME280;49406;51.044;3.766;2023-02-04T06:03:43;103601.23;;;8.95;100.00
63281;BME280;49406;51.044;3.766;2023-02-04T06:06:17;103599.15;;;8.92;100.00
63281;BME280;49406;51.044;3.766;2023-02-04T06:08:52;103597.62;;;8.93;100.00
63281;BME280;49406;51.044;3.766;2023-02-04T06:11:27;103598.41;;;8.92;100.00
63281;BME280;49406;51.044;3.766;2023-02-04T06:14:01;103606.16;;;8.93;100.00
63281;BME280;49406;51.044;3.766;2023-02-04T06:16:36;103607.55;;;8.93;100.00
63281;BME280;49406;51.044;3.766;2023-02-04T06:19:11;103607.53;;;8.92;100.00
63281;BME280;49406;51.044;3.766;2023-02-04T06:21:46;103607.59;;;8.90;100.00
63281;BME280;49406;51.044;3.766;2023-02-04T06:24:21;103611.86;;;8.92;100.00
63281;BME280;49406;51.044;3.766;2023-02-04T06:26:55;103610.86;;;8.93;100.00
63281;BME280;49406;51.044;3.766;2023-02-04T06:29:30;103615.45;;;8.94;100.00
63281;BME280;49406;51.044;3.766;2023-02-04T06:32:05;103620.21;;;8.94;100.00
63281;BME280;49406;51.044;3.766;2023-02-04T06:34:39;103624.67;;;8.93;100.00
63281;BME280;49406;51.044;3.766;2023-02-04T06:37:14;103624.59;;;8.95;100.00
63281;BME280;49406;51.044;3.766;2023-02-04T06:39:49;103627.02;;;8.94;100.00
63281;BME280;49406;51.044;3.766;2023-02-04T06:42:24;103625.11;;;8.94;100.00
63281;BME280;49406;51.044;3.766;2023-02-04T06:44:59;103625.14;;;8.92;100.00
63281;BME280;49406;51.044;3.766;2023-02-04T06:47:33;103631.20;;;8.94;100.00
63281;BME280;49406;51.044;3.766;2023-02-04T06:50:09;103632.27;;;8.92;100.00
63281;BME280;49406;51.044;3.766;2023-02-04T06:52:44;103636.09;;;8.91;100.00
63281;BME280;49406;51.044;3.766;2023-02-04T06:55:19;103635.39;;;8.91;100.00
63281;BME280;49406;51.044;3.766;2023-02-04T06:57:54;103639.77;;;8.92;100.00
63281;BME280;49406;51.044;3.766;2023-02-04T07:00:28;103638.92;;;8.92;100.00
63281;BME280;49406;51.044;3.766;2023-02-04T07:03:04;103643.15;;;8.93;100.00
63281;BME280;49406;51.044;3.766;2023-02-04T07:05:39;103645.21;;;8.92;100.00
63281;BME280;49406;51.044;3.766;2023-02-04T07:08:14;103648.40;;;8.93;100.00
63281;BME280;49406;51.044;3.766;2023-02-04T07:10:48;103650.13;;;8.93;100.00
63281;BME280;49406;51.044;3.766;2023-02-04T07:13:23;103653.63;;;8.93;100.00
63281;BME280;49406;51.044;3.766;2023-02-04T07:15:58;103656.39;;;8.92;100.00
63281;BME280;49406;51.044;3.766;2023-02-04T07:18:33;103655.45;;;8.91;100.00
63281;BME280;49406;51.044;3.766;2023-02-04T07:21:07;103659.81;;;8.91;100.00
63281;BME280;49406;51.044;3.766;2023-02-04T07:23:42;103663.95;;;8.91;100.00
63281;BME280;49406;51.044;3.766;2023-02-04T07:26:15;103663.08;;;8.88;100.00
63281;BME280;49406;51.044;3.766;2023-02-04T07:28:50;103669.11;;;8.90;100.00
63281;BME280;49406;51.044;3.766;2023-02-04T07:31:24;103667.67;;;8.89;100.00
63281;BME280;49406;51.044;3.766;2023-02-04T07:33:59;103667.14;;;8.89;100.00
63281;BME280;49406;51.044;3.766;2023-02-04T07:36:34;103659.02;;;8.87;100.00
63281;BME280;49406;51.044;3.766;2023-02-04T07:39:08;103658.14;;;8.87;100.00
63281;BME280;49406;51.044;3.766;2023-02-04T07:41:43;103661.27;;;8.90;100.00
63281;BME280;49406;51.044;3.766;2023-02-04T07:44:18;103663.46;;;8.91;100.00
63281;BME280;49406;51.044;3.766;2023-02-04T07:46:52;103665.58;;;8.91;100.00
63281;BME280;49406;51.044;3.766;2023-02-04T07:49:27;103664.20;;;8.92;100.00
63281;BME280;49406;51.044;3.766;2023-02-04T07:52:02;103671.59;;;8.96;100.00
63281;BME280;49406;51.044;3.766;2023-02-04T07:54:36;103674.27;;;8.97;100.00
63281;BME280;49406;51.044;3.766;2023-02-04T07:57:11;103674.66;;;8.97;100.00
63281;BME280;49406;51.044;3.766;2023-02-04T07:59:46;103680.13;;;8.98;100.00
63281;BME280;49406;51.044;3.766;2023-02-04T08:02:20;103684.89;;;8.99;100.00
63281;BME280;49406;51.044;3.766;2023-02-04T08:04:55;103686.84;;;9.00;100.00
63281;BME280;49406;51.044;3.766;2023-02-04T08:07:30;103688.63;;;9.00;100.00
63281;BME280;49406;51.044;3.766;2023-02-04T08:10:06;103691.35;;;9.02;100.00
63281;BME280;49406;51.044;3.766;2023-02-04T08:12:40;103687.38;;;9.00;100.00
63281;BME280;49406;51.044;3.766;2023-02-04T08:15:16;103693.17;;;9.04;100.00
63281;BME280;49406;51.044;3.766;2023-02-04T08:17:50;103699.45;;;9.04;100.00
63281;BME280;49406;51.044;3.766;2023-02-04T08:20:25;103697.61;;;9.05;100.00
63281;BME280;49406;51.044;3.766;2023-02-04T08:23:00;103697.71;;;9.06;100.00
63281;BME280;49406;51.044;3.766;2023-02-04T08:25:35;103699.40;;;9.08;100.00
63281;BME280;49406;51.044;3.766;2023-02-04T08:28:10;103699.55;;;9.08;100.00
63281;BME280;49406;51.044;3.766;2023-02-04T08:30:43;103706.05;;;9.12;100.00
63281;BME280;49406;51.044;3.766;2023-02-04T08:33:18;103704.40;;;9.13;100.00
63281;BME280;49406;51.044;3.766;2023-02-04T08:35:52;103709.45;;;9.16;100.00
63281;BME280;49406;51.044;3.766;2023-02-04T08:38:27;103709.38;;;9.18;100.00
63281;BME280;49406;51.044;3.766;2023-02-04T08:41:02;103708.52;;;9.21;100.00
63281;BME280;49406;51.044;3.766;2023-02-04T08:43:37;103709.83;;;9.25;100.00
63281;BME280;49406;51.044;3.766;2023-02-04T08:46:11;103717.14;;;9.31;100.00
63281;BME280;49406;51.044;3.766;2023-02-04T08:48:46;103721.30;;;9.36;100.00
63281;BME280;49406;51.044;3.766;2023-02-04T08:51:21;103720.80;;;9.43;100.00
63281;BME280;49406;51.044;3.766;2023-02-04T08:53:56;103729.52;;;9.48;100.00
63281;BME280;49406;51.044;3.766;2023-02-04T08:56:30;103730.78;;;9.52;100.00
63281;BME280;49406;51.044;3.766;2023-02-04T08:59:05;103729.52;;;9.57;100.00
63281;BME280;49406;51.044;3.766;2023-02-04T09:01:39;103736.28;;;9.65;100.00
63281;BME280;49406;51.044;3.766;2023-02-04T09:04:14;103738.36;;;9.74;100.00
63281;BME280;49406;51.044;3.766;2023-02-04T09:06:49;103742.54;;;9.83;100.00
63281;BME280;49406;51.044;3.766;2023-02-04T09:09:24;103745.01;;;9.89;100.00
63281;BME280;49406;51.044;3.766;2023-02-04T09:11:59;103747.35;;;9.90;100.00
63281;BME280;49406;51.044;3.766;2023-02-04T09:14:35;103750.27;;;9.90;100.00
63281;BME280;49406;51.044;3.766;2023-02-04T09:17:10;103749.77;;;9.87;100.00
63281;BME280;49406;51.044;3.766;2023-02-04T09:19:44;103753.34;;;9.85;100.00
63281;BME280;49406;51.044;3.766;2023-02-04T09:22:19;103752.27;;;9.82;100.00
63281;BME280;49406;51.044;3.766;2023-02-04T09:24:54;103752.70;;;9.80;100.00
63281;BME280;49406;51.044;3.766;2023-02-04T09:27:29;103757.40;;;9.86;100.00
63281;BME280;49406;51.044;3.766;2023-02-04T09:30:04;103759.39;;;9.87;100.00
63281;BME280;49406;51.044;3.766;2023-02-04T09:32:39;103760.35;;;9.89;100.00
63281;BME280;49406;51.044;3.766;2023-02-04T09:35:13;103760.73;;;9.92;100.00
63281;BME280;49406;51.044;3.766;2023-02-04T09:37:48;103761.89;;;9.94;100.00
63281;BME280;49406;51.044;3.766;2023-02-04T09:40:24;103765.04;;;10.04;100.00
63281;BME280;49406;51.044;3.766;2023-02-04T09:43:01;103765.88;;;10.12;100.00
63281;BME280;49406;51.044;3.766;2023-02-04T09:45:37;103766.34;;;10.20;100.00
63281;BME280;49406;51.044;3.766;2023-02-04T09:48:13;103770.12;;;10.31;100.00
63281;BME280;49406;51.044;3.766;2023-02-04T09:50:50;103774.92;;;10.35;100.00
63281;BME280;49406;51.044;3.766;2023-02-04T09:53:25;103779.48;;;10.32;100.00
63281;BME280;49406;51.044;3.766;2023-02-04T09:55:59;103775.38;;;10.28;100.00
63281;BME280;49406;51.044;3.766;2023-02-04T09:58:35;103777.27;;;10.33;100.00
63281;BME280;49406;51.044;3.766;2023-02-04T10:01:14;103784.33;;;10.34;100.00
63281;BME280;49406;51.044;3.766;2023-02-04T10:03:49;103788.10;;;10.39;100.00
63281;BME280;49406;51.044;3.766;2023-02-04T10:06:23;103786.37;;;10.42;100.00
63281;BME280;49406;51.044;3.766;2023-02-04T10:08:59;103787.48;;;10.43;100.00
63281;BME280;49406;51.044;3.766;2023-02-04T10:11:36;103790.45;;;10.47;100.00
63281;BME280;49406;51.044;3.766;2023-02-04T10:14:18;103796.21;;;10.53;100.00
63281;BME280;49406;51.044;3.766;2023-02-04T10:16:56;103795.16;;;10.59;100.00
63281;BME280;49406;51.044;3.766;2023-02-04T10:19:31;103794.77;;;10.65;100.00
63281;BME280;49406;51.044;3.766;2023-02-04T10:22:14;103798.54;;;10.70;100.00
63281;BME280;49406;51.044;3.766;2023-02-04T10:24:50;103798.52;;;10.76;100.00
63281;BME280;49406;51.044;3.766;2023-02-04T10:27:24;103795.30;;;10.84;100.00
63281;BME280;49406;51.044;3.766;2023-02-04T10:29:59;103790.44;;;10.92;100.00
63281;BME280;49406;51.044;3.766;2023-02-04T10:32:34;103793.88;;;11.03;100.00
63281;BME280;49406;51.044;3.766;2023-02-04T10:35:15;103796.51;;;11.17;100.00
63281;BME280;49406;51.044;3.766;2023-02-04T10:38:03;103803.22;;;11.28;100.00
63281;BME280;49406;51.044;3.766;2023-02-04T10:40:38;103806.52;;;11.34;100.00
63281;BME280;49406;51.044;3.766;2023-02-04T10:43:16;103805.36;;;11.42;100.00
63281;BME280;49406;51.044;3.766;2023-02-04T10:45:57;103805.55;;;11.42;100.00
63281;BME280;49406;51.044;3.766;2023-02-04T10:48:40;103802.77;;;11.46;100.00
63281;BME280;49406;51.044;3.766;2023-02-04T10:51:15;103796.27;;;11.53;100.00
63281;BME280;49406;51.044;3.766;2023-02-04T10:53:50;103798.95;;;11.64;100.00
63281;BME280;49406;51.044;3.766;2023-02-04T10:56:42;103794.52;;;11.62;100.00
63281;BME280;49406;51.044;3.766;2023-02-04T10:59:22;103793.63;;;11.66;100.00
63281;BME280;49406;51.044;3.766;2023-02-04T11:02:01;103788.59;;;11.70;100.00
63281;BME280;49406;51.044;3.766;2023-02-04T11:04:45;103793.60;;;11.79;100.00
63281;BME280;49406;51.044;3.766;2023-02-04T11:07:19;103789.69;;;11.78;100.00
63281;BME280;49406;51.044;3.766;2023-02-04T11:09:55;103789.33;;;11.71;100.00
63281;BME280;49406;51.044;3.766;2023-02-04T11:12:41;103790.61;;;11.72;100.00
63281;BME280;49406;51.044;3.766;2023-02-04T11:15:40;103787.12;;;11.79;100.00
63281;BME280;49406;51.044;3.766;2023-02-04T11:18:28;103783.55;;;11.88;100.00
63281;BME280;49406;51.044;3.766;2023-02-04T11:21:14;103787.90;;;11.98;100.00
63281;BME280;49406;51.044;3.766;2023-02-04T11:23:50;103788.02;;;12.08;100.00
63281;BME280;49406;51.044;3.766;2023-02-04T11:26:37;103790.74;;;12.02;100.00
63281;BME280;49406;51.044;3.766;2023-02-04T11:29:26;103792.39;;;11.96;100.00
63281;BME280;49406;51.044;3.766;2023-02-04T11:32:26;103792.86;;;11.95;100.00
63281;BME280;49406;51.044;3.766;2023-02-04T11:35:25;103791.14;;;11.89;100.00
63281;BME280;49406;51.044;3.766;2023-02-04T11:38:01;103792.77;;;11.86;100.00
63281;BME280;49406;51.044;3.766;2023-02-04T11:40:36;103792.71;;;11.85;100.00
63281;BME280;49406;51.044;3.766;2023-02-04T11:43:13;103792.51;;;11.92;100.00
63281;BME280;49406;51.044;3.766;2023-02-04T11:45:58;103794.35;;;12.04;100.00
63281;BME280;49406;51.044;3.766;2023-02-04T11:48:36;103794.64;;;12.10;100.00
63281;BME280;49406;51.044;3.766;2023-02-04T11:51:13;103794.50;;;12.07;100.00
63281;BME280;49406;51.044;3.766;2023-02-04T11:53:51;103791.05;;;12.09;100.00
63281;BME280;49406;51.044;3.766;2023-02-04T11:56:28;103791.55;;;12.11;100.00
63281;BME280;49406;51.044;3.766;2023-02-04T11:59:03;103788.25;;;12.12;100.00
63281;BME280;49406;51.044;3.766;2023-02-04T12:01:38;103792.83;;;12.12;100.00
63281;BME280;49406;51.044;3.766;2023-02-04T12:04:23;103791.19;;;12.18;100.00
63281;BME280;49406;51.044;3.766;2023-02-04T12:07:00;103795.63;;;12.23;100.00
63281;BME280;49406;51.044;3.766;2023-02-04T12:09:35;103794.15;;;12.25;100.00
63281;BME280;49406;51.044;3.766;2023-02-04T12:12:27;103794.63;;;12.21;100.00
63281;BME280;49406;51.044;3.766;2023-02-04T12:15:15;103793.38;;;12.13;100.00
63281;BME280;49406;51.044;3.766;2023-02-04T12:18:01;103797.30;;;12.03;100.00
63281;BME280;49406;51.044;3.766;2023-02-04T12:20:36;103799.59;;;12.00;100.00
63281;BME280;49406;51.044;3.766;2023-02-04T12:23:11;103800.39;;;11.91;100.00
63281;BME280;49406;51.044;3.766;2023-02-04T12:25:46;103800.22;;;11.85;100.00
63281;BME280;49406;51.044;3.766;2023-02-04T12:28:21;103803.57;;;11.82;100.00
63281;BME280;49406;51.044;3.766;2023-02-04T12:30:56;103801.38;;;11.80;100.00
63281;BME280;49406;51.044;3.766;2023-02-04T12:33:31;103801.11;;;11.81;100.00
63281;BME280;49406;51.044;3.766;2023-02-04T12:36:06;103806.40;;;11.86;100.00
63281;BME280;49406;51.044;3.766;2023-02-04T12:38:41;103796.44;;;11.86;100.00
63281;BME280;49406;51.044;3.766;2023-02-04T12:41:16;103799.90;;;11.89;100.00
63281;BME280;49406;51.044;3.766;2023-02-04T12:43:52;103804.26;;;11.88;100.00
63281;BME280;49406;51.044;3.766;2023-02-04T12:46:27;103804.61;;;11.85;100.00
63281;BME280;49406;51.044;3.766;2023-02-04T12:49:02;103802.31;;;11.85;100.00
63281;BME280;49406;51.044;3.766;2023-02-04T12:51:37;103805.88;;;11.86;100.00
63281;BME280;49406;51.044;3.766;2023-02-04T12:54:10;103806.32;;;11.84;100.00
63281;BME280;49406;51.044;3.766;2023-02-04T12:56:44;103805.19;;;11.79;100.00
63281;BME280;49406;51.044;3.766;2023-02-04T12:59:21;103805.23;;;11.77;100.00
63281;BME280;49406;51.044;3.766;2023-02-04T13:01:56;103805.56;;;11.79;100.00
63281;BME280;49406;51.044;3.766;2023-02-04T13:04:31;103807.43;;;11.78;100.00
63281;BME280;49406;51.044;3.766;2023-02-04T13:07:05;103806.27;;;11.80;100.00
63281;BME280;49406;51.044;3.766;2023-02-04T13:09:40;103808.26;;;11.77;100.00
63281;BME280;49406;51.044;3.766;2023-02-04T13:12:15;103806.93;;;11.76;100.00
63281;BME280;49406;51.044;3.766;2023-02-04T13:14:49;103807.08;;;11.75;100.00
63281;BME280;49406;51.044;3.766;2023-02-04T13:17:24;103802.59;;;11.77;100.00
63281;BME280;49406;51.044;3.766;2023-02-04T13:19:59;103800.11;;;11.76;100.00
63281;BME280;49406;51.044;3.766;2023-02-04T13:22:33;103802.52;;;11.78;100.00
63281;BME280;49406;51.044;3.766;2023-02-04T13:25:08;103795.31;;;11.78;100.00
63281;BME280;49406;51.044;3.766;2023-02-04T13:27:45;103782.63;;;11.77;100.00
63281;BME280;49406;51.044;3.766;2023-02-04T13:30:20;103784.52;;;11.79;100.00